Chomedey, Canada
Current Conditions -  °F | °C
As of 12:00 AM on Sunday 21 Dec 2014 (Local Time) from CYUL Reporting Station
Haze Haze  
Wind Chill:   Ceiling: 500
Heat Index: 12°   Visibility: 4mi
Dew Point: 10°   Wind: 7mph
Humidity: 92%   Direction: 50°NE
Pressure: 30.37"   Gusts: NA
Location:  45.55°N, 73.73°W
Report Text: CYUL 210500Z 05006KT 4SM BR OVC005 M11/M12 A3037 RMK ST8 SLP286
Loading
Personal Weather Stations






























Interactive Weather Map New forecast layout! Learn more

10-Day Weather Forecast

Advertisements
Track Severe Weather on mobile